createdAt,value
2022-10-13T00:01:33.932Z,6.95
2022-10-13T00:04:02.316Z,8.07
2022-10-13T00:06:32.387Z,7.65
2022-10-13T00:09:00.951Z,6.40
2022-10-13T00:11:31.101Z,7.40
2022-10-13T00:14:01.829Z,7.40
2022-10-13T00:16:32.210Z,7.78
2022-10-13T00:19:01.192Z,7.40
2022-10-13T00:21:31.532Z,7.18
2022-10-13T00:23:59.996Z,7.82
2022-10-13T00:26:28.944Z,7.60
2022-10-13T00:28:57.772Z,8.63
2022-10-13T00:31:28.279Z,9.18
2022-10-13T00:33:57.099Z,8.20
2022-10-13T00:36:25.765Z,6.78
2022-10-13T00:38:55.821Z,6.82
2022-10-13T00:41:24.323Z,6.68
2022-10-13T00:43:57.266Z,6.82
2022-10-13T00:46:27.982Z,7.05
2022-10-13T00:49:02.974Z,7.05
2022-10-13T00:51:34.741Z,6.22
2022-10-13T00:54:07.076Z,6.82
2022-10-13T00:56:37.539Z,7.00
2022-10-13T00:59:10.530Z,7.15
2022-10-13T01:01:41.344Z,6.72
2022-10-13T01:04:10.403Z,7.30
2022-10-13T01:06:39.096Z,6.97
2022-10-13T01:09:11.129Z,9.35
2022-10-13T01:11:55.523Z,8.63
2022-10-13T01:14:31.878Z,7.88
2022-10-13T01:17:10.335Z,7.60
2022-10-13T01:20:05.889Z,7.82
2022-10-13T01:22:49.868Z,7.10
2022-10-13T01:25:40.424Z,7.93
2022-10-13T01:28:32.817Z,8.23
2022-10-13T01:31:09.582Z,8.38
2022-10-13T01:33:44.914Z,10.00
2022-10-13T01:36:25.040Z,10.00
2022-10-13T01:38:58.166Z,10.23
2022-10-13T01:41:34.604Z,7.50
2022-10-13T01:44:16.362Z,7.13
2022-10-13T01:46:55.255Z,6.90
2022-10-13T01:49:28.371Z,6.88
2022-10-13T01:52:01.419Z,7.22
2022-10-13T01:54:30.080Z,7.53
2022-10-13T01:57:01.084Z,7.00
2022-10-13T01:59:33.931Z,6.97
2022-10-13T02:02:13.224Z,7.90
2022-10-13T02:04:52.653Z,6.68
2022-10-13T02:07:25.143Z,7.30
2022-10-13T02:10:03.740Z,7.60
2022-10-13T02:12:38.162Z,7.30
2022-10-13T02:15:10.544Z,7.90
2022-10-13T02:17:43.454Z,7.75
2022-10-13T02:20:12.848Z,7.57
2022-10-13T02:22:46.805Z,8.48
2022-10-13T02:25:15.513Z,8.27
2022-10-13T02:27:44.022Z,7.43
2022-10-13T02:30:23.175Z,7.47
2022-10-13T02:32:53.022Z,6.93
2022-10-13T02:35:21.557Z,6.95
2022-10-13T02:37:50.020Z,7.63
2022-10-13T02:40:18.988Z,7.53
2022-10-13T02:42:47.426Z,6.97
2022-10-13T02:45:16.249Z,7.05
2022-10-13T02:47:45.381Z,7.43
2022-10-13T02:50:15.359Z,6.82
2022-10-13T02:52:43.830Z,7.07
2022-10-13T02:55:12.285Z,6.28
2022-10-13T02:57:41.310Z,6.78
2022-10-13T03:00:10.795Z,6.55
2022-10-13T03:02:39.370Z,6.95
2022-10-13T03:05:08.187Z,6.93
2022-10-13T03:07:38.326Z,6.93
2022-10-13T03:10:07.776Z,7.13
2022-10-13T03:12:36.213Z,7.13
2022-10-13T03:15:05.354Z,6.50
2022-10-13T03:17:33.819Z,6.50
2022-10-13T03:20:02.258Z,6.90
2022-10-13T03:22:32.957Z,6.60
2022-10-13T03:25:03.807Z,6.63
2022-10-13T03:27:32.366Z,7.22
2022-10-13T03:30:00.784Z,7.65
2022-10-13T03:32:31.597Z,7.72
2022-10-13T03:35:00.388Z,8.82
2022-10-13T03:37:31.465Z,8.77
2022-10-13T03:40:00.087Z,7.22
2022-10-13T03:42:30.121Z,6.60
2022-10-13T03:44:58.579Z,6.97
2022-10-13T03:47:27.047Z,6.63
2022-10-13T03:49:56.161Z,7.07
2022-10-13T03:52:24.896Z,7.05
2022-10-13T03:54:53.369Z,7.20
2022-10-13T03:57:21.822Z,7.22
2022-10-13T03:59:51.697Z,8.35
2022-10-13T04:02:20.373Z,7.40
2022-10-13T04:04:50.494Z,6.75
2022-10-13T04:07:19.001Z,7.35
2022-10-13T04:09:47.437Z,7.15
2022-10-13T04:12:19.826Z,7.28
2022-10-13T04:14:49.826Z,7.47
2022-10-13T04:17:19.682Z,6.65
2022-10-13T04:19:48.168Z,6.80
2022-10-13T04:22:16.798Z,7.20
2022-10-13T04:24:49.522Z,8.00
2022-10-13T04:27:19.998Z,7.70
2022-10-13T04:29:48.419Z,6.55
2022-10-13T04:32:17.168Z,6.78
2022-10-13T04:34:47.194Z,7.63
2022-10-13T04:37:15.591Z,7.05
2022-10-13T04:39:44.042Z,6.85
2022-10-13T04:42:12.493Z,6.90
2022-10-13T04:44:41.156Z,7.65
2022-10-13T04:47:13.294Z,7.47
2022-10-13T04:49:41.745Z,7.93
2022-10-13T04:52:11.601Z,8.55
2022-10-13T04:54:40.252Z,8.68
2022-10-13T04:57:08.653Z,7.63
2022-10-13T04:59:37.045Z,8.00
2022-10-13T05:05:14.936Z,6.68
2022-10-13T05:07:44.785Z,7.07
2022-10-13T05:10:13.312Z,7.20
2022-10-13T05:12:41.760Z,7.00
2022-10-13T05:15:11.007Z,7.63
2022-10-13T05:17:39.429Z,7.63
2022-10-13T05:20:11.662Z,8.75
2022-10-13T05:22:40.053Z,9.00
2022-10-13T05:25:10.268Z,9.18
2022-10-13T05:27:38.984Z,8.50
2022-10-13T05:30:12.088Z,9.20
2022-10-13T05:32:40.548Z,8.77
2022-10-13T05:35:10.762Z,7.50
2022-10-13T05:37:42.002Z,7.18
2022-10-13T05:40:13.222Z,7.07
2022-10-13T05:42:41.682Z,6.80
2022-10-13T05:45:12.899Z,7.80
2022-10-13T05:47:41.300Z,6.72
2022-10-13T05:50:10.024Z,6.70
2022-10-13T05:52:42.649Z,7.38
2022-10-13T05:55:16.142Z,7.05
2022-10-13T05:57:47.093Z,8.23
2022-10-13T06:00:18.369Z,7.32
2022-10-13T06:02:51.477Z,7.90
2022-10-13T06:05:23.025Z,7.75
2022-10-13T06:07:56.144Z,8.10
2022-10-13T06:10:26.735Z,8.32
2022-10-13T06:12:55.206Z,8.70
2022-10-13T06:15:28.012Z,7.90
2022-10-13T06:17:57.951Z,8.70
2022-10-13T06:20:27.753Z,9.73
2022-10-13T06:22:56.339Z,9.15
2022-10-13T06:25:26.250Z,8.32
2022-10-13T06:27:54.701Z,9.02
2022-10-13T06:30:23.180Z,8.98
2022-10-13T06:32:51.624Z,8.55
2022-10-13T06:35:20.092Z,9.27
2022-10-13T06:37:48.849Z,8.90
2022-10-13T06:40:17.353Z,9.75
2022-10-13T06:42:52.206Z,9.93
2022-10-13T06:45:24.288Z,9.38
2022-10-13T06:47:54.266Z,9.07
2022-10-13T06:50:22.724Z,9.73
2022-10-13T06:52:51.646Z,8.98
2022-10-13T06:55:20.129Z,9.27
2022-10-13T06:57:48.528Z,8.27
2022-10-13T07:00:18.758Z,8.40
2022-10-13T07:02:51.659Z,8.40
2022-10-13T07:05:20.431Z,8.48
2022-10-13T07:07:48.866Z,9.02
2022-10-13T07:10:17.455Z,9.32
2022-10-13T07:12:47.056Z,9.88
2022-10-13T07:15:15.692Z,9.48
2022-10-13T07:17:45.661Z,10.88
2022-10-13T07:20:14.119Z,13.02
2022-10-13T07:22:42.735Z,14.40
2022-10-13T07:25:11.494Z,25.15
2022-10-13T07:27:41.018Z,26.10
2022-10-13T07:30:10.460Z,29.23
2022-10-13T07:32:42.109Z,27.73
2022-10-13T07:35:13.465Z,27.00
2022-10-13T07:37:41.990Z,28.20
2022-10-13T07:40:11.569Z,30.40
2022-10-13T07:42:40.010Z,30.20
2022-10-13T07:45:09.928Z,29.98
2022-10-13T07:47:38.611Z,21.40
2022-10-13T07:50:07.493Z,18.50
2022-10-13T07:52:38.169Z,17.13
2022-10-13T07:55:07.919Z,15.20
2022-10-13T07:57:36.402Z,16.35
2022-10-13T08:00:07.360Z,17.98
2022-10-13T08:02:40.892Z,14.88
2022-10-13T08:05:09.923Z,13.93
2022-10-13T08:07:39.982Z,19.92
2022-10-13T08:10:09.850Z,22.38
2022-10-13T08:12:38.667Z,24.20
2022-10-13T08:15:08.841Z,22.83
2022-10-13T08:17:37.467Z,18.95
2022-10-13T08:20:07.409Z,18.85
2022-10-13T08:22:35.855Z,15.73
2022-10-13T08:25:07.407Z,14.63
2022-10-13T08:27:50.683Z,14.57
2022-10-13T08:30:20.260Z,15.32
2022-10-13T08:32:48.883Z,13.38
2022-10-13T08:35:17.370Z,13.07
2022-10-13T08:37:45.826Z,11.95
2022-10-13T08:40:19.947Z,11.00
2022-10-13T08:42:48.651Z,10.93
2022-10-13T08:45:40.283Z,10.45
2022-10-13T08:48:17.045Z,10.68
2022-10-13T08:50:48.964Z,9.98
2022-10-13T08:53:24.683Z,11.55
2022-10-13T08:55:59.091Z,11.15
2022-10-13T08:58:32.280Z,12.45
2022-10-13T09:01:12.201Z,12.70
2022-10-13T09:03:49.068Z,12.35
2022-10-13T09:06:27.358Z,13.00
2022-10-13T09:08:58.752Z,13.32
2022-10-13T09:11:30.459Z,14.02
2022-10-13T09:14:00.845Z,14.20
2022-10-13T09:16:31.370Z,12.85
2022-10-13T09:19:16.222Z,15.73
2022-10-13T09:21:44.846Z,16.98
2022-10-13T09:24:17.008Z,21.92
2022-10-13T09:26:49.075Z,20.92
2022-10-13T09:29:20.377Z,17.00
2022-10-13T09:31:49.007Z,16.38
2022-10-13T09:34:26.474Z,16.10
2022-10-13T09:37:01.823Z,16.52
2022-10-13T09:39:31.158Z,15.45
2022-10-13T09:42:22.835Z,14.10
2022-10-13T09:44:58.725Z,17.42
2022-10-13T09:47:29.613Z,22.05
2022-10-13T09:50:07.333Z,19.48
2022-10-13T09:52:36.193Z,23.50
2022-10-13T09:55:28.659Z,15.23
2022-10-13T09:58:07.413Z,21.50
2022-10-13T10:00:37.871Z,17.83
2022-10-13T10:03:14.170Z,16.00
2022-10-13T10:05:48.332Z,15.38
2022-10-13T10:08:28.877Z,16.52
2022-10-13T10:11:05.048Z,17.60
2022-10-13T10:13:34.884Z,15.27
2022-10-13T10:16:11.985Z,14.23
2022-10-13T10:18:46.510Z,13.65
2022-10-13T10:21:26.806Z,15.32
2022-10-13T10:24:01.243Z,13.70
2022-10-13T10:26:40.274Z,13.60
2022-10-13T10:29:20.816Z,13.98
2022-10-13T10:32:05.272Z,13.18
2022-10-13T10:34:40.723Z,15.38
2022-10-13T10:37:21.470Z,19.33
2022-10-13T10:40:04.896Z,13.98
2022-10-13T10:43:10.654Z,13.27
2022-10-13T10:45:41.289Z,11.55
2022-10-13T10:48:21.232Z,12.80
2022-10-13T10:50:51.955Z,20.45
2022-10-13T10:53:29.480Z,28.92
2022-10-13T10:56:05.382Z,12.48
2022-10-13T10:58:43.202Z,12.52
2022-10-13T11:01:27.620Z,11.23
2022-10-13T11:04:00.006Z,11.85
2022-10-13T11:06:35.386Z,10.38
2022-10-13T11:09:06.327Z,9.82
2022-10-13T11:11:40.441Z,11.23
2022-10-13T11:14:32.067Z,10.93
2022-10-13T11:17:12.010Z,10.95
2022-10-13T11:19:41.890Z,10.82
2022-10-13T11:22:16.382Z,11.50
2022-10-13T11:25:03.095Z,11.25
2022-10-13T11:27:45.217Z,11.25
2022-10-13T11:30:56.356Z,12.13
2022-10-13T11:34:05.538Z,9.32
2022-10-13T11:36:51.348Z,9.68
2022-10-13T11:40:00.211Z,9.52
2022-10-13T11:42:55.570Z,8.90
2022-10-13T11:45:58.256Z,8.05
2022-10-13T11:49:01.794Z,6.93
2022-10-13T11:51:54.828Z,7.13
2022-10-13T11:54:29.092Z,7.22
2022-10-13T11:56:58.629Z,7.53
2022-10-13T11:59:31.146Z,8.35
2022-10-13T12:02:07.356Z,9.07
2022-10-13T12:04:35.794Z,10.00
2022-10-13T12:07:08.835Z,10.40
2022-10-13T12:09:48.699Z,9.80
2022-10-13T12:12:19.748Z,9.20
2022-10-13T12:14:51.820Z,9.40
2022-10-13T12:17:39.074Z,8.35
2022-10-13T12:20:22.856Z,10.07
2022-10-13T12:22:54.520Z,7.68
2022-10-13T12:25:25.129Z,9.38
2022-10-13T12:28:01.578Z,12.57
2022-10-13T12:30:32.388Z,16.63
2022-10-13T12:33:01.798Z,14.23
2022-10-13T12:35:32.036Z,14.10
2022-10-13T12:38:04.440Z,16.67
2022-10-13T12:40:35.990Z,16.73
2022-10-13T12:43:05.557Z,17.70
2022-10-13T12:45:36.688Z,15.68
2022-10-13T12:48:05.504Z,16.27
2022-10-13T12:50:36.950Z,17.55
2022-10-13T12:53:15.541Z,17.67
2022-10-13T12:55:58.806Z,15.75
2022-10-13T12:58:30.705Z,14.23
2022-10-13T13:01:18.709Z,15.25
2022-10-13T13:03:47.210Z,15.20
2022-10-13T13:06:31.468Z,16.50
2022-10-13T13:09:28.856Z,18.92
2022-10-13T13:12:28.024Z,18.48
2022-10-13T13:14:58.046Z,18.80
2022-10-13T13:17:53.372Z,19.05
2022-10-13T13:20:23.438Z,18.83
2022-10-13T13:22:52.086Z,18.83
2022-10-13T13:25:22.100Z,21.65
2022-10-13T13:27:50.852Z,25.45
2022-10-13T13:30:21.631Z,21.10
2022-10-13T13:32:50.225Z,20.45
2022-10-13T13:35:18.839Z,19.15
2022-10-13T13:37:50.009Z,19.20
2022-10-13T13:40:22.635Z,18.98
2022-10-13T13:42:51.174Z,20.02
2022-10-13T13:45:21.899Z,18.00
2022-10-13T13:47:51.396Z,18.08
2022-10-13T13:50:23.392Z,19.42
2022-10-13T13:52:58.100Z,19.20
2022-10-13T13:55:29.771Z,19.92
2022-10-13T13:57:58.393Z,19.35
2022-10-13T14:00:27.045Z,18.58
2022-10-13T14:02:56.955Z,17.23
2022-10-13T14:05:25.641Z,14.13
2022-10-13T14:07:58.063Z,13.48
2022-10-13T14:10:29.394Z,11.65
2022-10-13T14:12:57.825Z,12.10
2022-10-13T14:15:29.675Z,10.43
2022-10-13T14:17:58.634Z,9.68
2022-10-13T14:20:27.136Z,10.02
2022-10-13T14:22:55.555Z,9.18
2022-10-13T14:25:24.039Z,9.95
2022-10-13T14:27:53.850Z,8.90
2022-10-13T14:30:22.217Z,8.68
2022-10-13T14:32:50.655Z,7.93
2022-10-13T14:35:19.221Z,7.57
2022-10-13T14:37:47.593Z,13.25
2022-10-13T14:40:16.608Z,12.75
2022-10-13T14:42:45.059Z,8.60
2022-10-13T14:45:18.337Z,8.75
2022-10-13T14:47:46.855Z,8.18
2022-10-13T14:50:15.286Z,8.13
2022-10-13T14:52:45.493Z,8.85
2022-10-13T14:55:13.913Z,10.02
2022-10-13T14:57:43.865Z,10.98
2022-10-13T15:00:13.430Z,8.85
2022-10-13T15:02:43.712Z,8.02
2022-10-13T15:05:12.241Z,7.75
2022-10-13T15:07:41.413Z,9.15
2022-10-13T15:10:10.396Z,9.48
2022-10-13T15:12:38.828Z,8.70
2022-10-13T15:15:07.893Z,8.43
2022-10-13T15:17:37.065Z,9.88
2022-10-13T15:20:08.596Z,9.10
2022-10-13T15:22:37.338Z,23.25
2022-10-13T15:25:11.971Z,9.27
2022-10-13T15:27:42.174Z,8.15
2022-10-13T15:30:11.563Z,16.25
2022-10-13T15:32:39.946Z,10.05
2022-10-13T15:35:10.469Z,8.27
2022-10-13T15:37:43.185Z,7.25
2022-10-13T15:40:12.786Z,6.43
2022-10-13T15:42:41.161Z,7.35
2022-10-13T15:45:11.554Z,5.35
2022-10-13T15:47:40.436Z,5.60
2022-10-13T15:50:11.026Z,5.57
2022-10-13T15:52:40.986Z,4.68
2022-10-13T15:55:10.545Z,5.22
2022-10-13T15:57:39.272Z,5.78
2022-10-13T16:00:09.706Z,4.78
2022-10-13T16:02:41.584Z,4.97
2022-10-13T16:05:13.842Z,4.10
2022-10-13T16:07:42.914Z,15.57
2022-10-13T16:10:13.479Z,3.92
2022-10-13T16:12:46.972Z,3.20
2022-10-13T16:15:18.656Z,2.92
2022-10-13T16:17:47.460Z,2.80
2022-10-13T16:20:17.470Z,3.03
2022-10-13T16:22:45.851Z,3.33
2022-10-13T16:25:14.316Z,3.03
2022-10-13T16:27:44.579Z,2.67
2022-10-13T16:30:14.115Z,2.75
2022-10-13T16:32:42.834Z,2.63
2022-10-13T16:35:11.829Z,2.25
2022-10-13T16:37:41.743Z,2.55
2022-10-13T16:40:11.114Z,2.45
2022-10-13T16:42:39.640Z,2.20
2022-10-13T16:45:09.077Z,2.03
2022-10-13T16:47:37.476Z,2.10
2022-10-13T16:50:09.770Z,2.35
2022-10-13T16:52:39.227Z,2.03
2022-10-13T16:55:10.932Z,2.42
2022-10-13T16:57:39.325Z,2.25
2022-10-13T17:00:09.797Z,2.95
2022-10-13T17:02:38.277Z,2.55
2022-10-13T17:05:06.916Z,2.75
2022-10-13T17:07:35.366Z,2.85
2022-10-13T17:10:04.396Z,2.58
2022-10-13T17:12:35.029Z,2.17
2022-10-13T17:15:03.524Z,2.22
2022-10-13T17:17:32.176Z,2.13
2022-10-13T17:20:00.630Z,2.67
2022-10-13T17:22:29.057Z,2.03
2022-10-13T17:24:57.535Z,2.13
2022-10-13T17:27:25.961Z,2.08
2022-10-13T17:29:55.928Z,1.88
2022-10-13T17:32:25.102Z,1.75
2022-10-13T17:34:53.642Z,1.77
2022-10-13T17:37:22.549Z,1.67
2022-10-13T17:39:51.386Z,1.60
2022-10-13T17:42:19.877Z,1.50
2022-10-13T17:44:50.467Z,1.70
2022-10-13T17:47:20.473Z,1.80
2022-10-13T17:49:49.100Z,1.67
2022-10-13T17:52:19.865Z,1.83
2022-10-13T17:54:49.309Z,1.90
2022-10-13T17:57:18.016Z,1.50
2022-10-13T17:59:47.184Z,1.80
2022-10-13T18:02:16.051Z,1.83
2022-10-13T18:04:46.503Z,1.85
2022-10-13T18:07:15.352Z,1.80
2022-10-13T18:09:43.828Z,1.73
2022-10-13T18:12:12.352Z,1.95
2022-10-13T18:14:40.881Z,2.05
2022-10-13T18:17:09.313Z,2.40
2022-10-13T18:19:40.477Z,2.17
2022-10-13T18:22:10.465Z,2.10
2022-10-13T18:24:39.585Z,2.13
2022-10-13T18:27:08.029Z,2.00
2022-10-13T18:29:37.084Z,2.03
2022-10-13T18:32:05.692Z,2.28
2022-10-13T18:34:34.221Z,1.73
2022-10-13T18:37:02.668Z,1.90
2022-10-13T18:39:34.454Z,1.48
2022-10-13T18:42:02.989Z,2.53
2022-10-13T18:44:37.596Z,2.40
2022-10-13T18:47:07.070Z,2.28
2022-10-13T18:49:35.674Z,2.10
2022-10-13T18:52:04.092Z,2.60
2022-10-13T18:54:34.293Z,2.10
2022-10-13T18:57:02.691Z,2.60
2022-10-13T18:59:31.153Z,2.25
2022-10-13T19:01:59.995Z,2.50
2022-10-13T19:04:28.729Z,3.13
2022-10-13T19:06:57.147Z,3.13
2022-10-13T19:09:26.541Z,3.20
2022-10-13T19:11:57.885Z,3.05
2022-10-13T19:14:27.426Z,2.72
2022-10-13T19:17:00.890Z,3.03
2022-10-13T19:19:31.265Z,3.08
2022-10-13T19:22:02.336Z,3.30
2022-10-13T19:24:31.046Z,3.30
2022-10-13T19:27:00.882Z,3.30
2022-10-13T19:29:30.644Z,4.13
2022-10-13T19:31:59.347Z,4.18
2022-10-13T19:34:27.927Z,3.88
2022-10-13T19:36:59.834Z,3.47
2022-10-13T19:39:29.025Z,3.17
2022-10-13T19:41:58.675Z,3.55
2022-10-13T19:44:28.622Z,3.17
2022-10-13T19:46:57.080Z,4.00
2022-10-13T19:49:26.671Z,4.03
2022-10-13T19:51:56.193Z,3.47
2022-10-13T19:54:25.736Z,3.20
2022-10-13T19:56:55.560Z,3.35
2022-10-13T19:59:24.258Z,3.45
2022-10-13T20:01:54.056Z,3.47
2022-10-13T20:04:22.787Z,3.00
2022-10-13T20:06:52.467Z,3.88
2022-10-13T20:09:21.209Z,3.13
2022-10-13T20:11:51.890Z,2.95
2022-10-13T20:14:20.848Z,2.85
2022-10-13T20:16:49.509Z,3.78
2022-10-13T20:19:19.922Z,3.88
2022-10-13T20:21:51.766Z,3.15
2022-10-13T20:24:20.711Z,3.67
2022-10-13T20:26:49.097Z,3.50
2022-10-13T20:29:20.901Z,3.28
2022-10-13T20:31:49.308Z,3.08
2022-10-13T20:34:19.126Z,3.45
2022-10-13T20:36:47.690Z,3.45
2022-10-13T20:39:16.094Z,3.25
2022-10-13T20:41:44.990Z,3.70
2022-10-13T20:44:14.670Z,3.13
2022-10-13T20:46:43.182Z,4.05
2022-10-13T20:49:13.005Z,3.55
2022-10-13T20:51:45.227Z,3.50
2022-10-13T20:54:15.857Z,3.53
2022-10-13T20:56:44.857Z,4.10
2022-10-13T20:59:15.720Z,4.22
2022-10-13T21:01:44.507Z,3.83
2022-10-13T21:04:12.946Z,3.85
2022-10-13T21:06:43.771Z,4.07
2022-10-13T21:09:12.928Z,3.28
2022-10-13T21:11:43.476Z,3.88
2022-10-13T21:14:12.318Z,3.55
2022-10-13T21:16:41.237Z,3.70
2022-10-13T21:19:14.257Z,4.72
2022-10-13T21:21:44.543Z,4.45
2022-10-13T21:24:13.027Z,4.43
2022-10-13T21:26:43.581Z,3.90
2022-10-13T21:29:15.729Z,3.83
2022-10-13T21:31:44.293Z,4.43
2022-10-13T21:34:15.364Z,4.25
2022-10-13T21:36:45.707Z,3.83
2022-10-13T21:39:14.834Z,4.43
2022-10-13T21:41:43.412Z,4.45
2022-10-13T21:44:13.957Z,4.65
2022-10-13T21:46:42.890Z,4.38
2022-10-13T21:49:11.327Z,3.95
2022-10-13T21:51:41.608Z,3.85
2022-10-13T21:54:13.530Z,4.13
2022-10-13T21:56:42.610Z,4.13
2022-10-13T21:59:13.599Z,4.65
2022-10-13T22:01:42.561Z,4.97
2022-10-13T22:04:15.286Z,4.18
2022-10-13T22:06:44.234Z,4.10
2022-10-13T22:09:14.863Z,4.43
2022-10-13T22:11:43.836Z,4.18
2022-10-13T22:14:12.842Z,4.55
2022-10-13T22:16:43.410Z,4.70
2022-10-13T22:19:11.911Z,3.88
2022-10-13T22:21:43.044Z,4.00
2022-10-13T22:24:15.371Z,4.25
2022-10-13T22:26:46.960Z,4.60
2022-10-13T22:29:18.152Z,4.88
2022-10-13T22:31:47.363Z,4.38
2022-10-13T22:34:16.392Z,4.85
2022-10-13T22:36:45.470Z,3.85
2022-10-13T22:39:16.135Z,3.80
2022-10-13T22:41:44.984Z,3.60
2022-10-13T22:44:14.935Z,3.47
2022-10-13T22:46:43.408Z,3.50
2022-10-13T22:49:15.549Z,3.85
2022-10-13T22:51:44.044Z,4.18
2022-10-13T22:54:12.582Z,4.20
2022-10-13T22:56:43.271Z,5.28
2022-10-13T22:59:13.915Z,4.03
2022-10-13T23:01:42.413Z,5.70
2022-10-13T23:04:11.021Z,5.57
2022-10-13T23:06:39.615Z,5.00
2022-10-13T23:09:11.479Z,5.28
2022-10-13T23:11:42.766Z,5.93
2022-10-13T23:14:14.290Z,5.25
2022-10-13T23:16:42.813Z,5.90
2022-10-13T23:19:11.609Z,7.32
2022-10-13T23:21:40.046Z,8.20
2022-10-13T23:24:09.124Z,8.75
2022-10-13T23:26:37.591Z,6.57
2022-10-13T23:29:07.581Z,5.80
2022-10-13T23:31:36.117Z,4.45
2022-10-13T23:34:04.695Z,4.65
2022-10-13T23:36:33.959Z,4.50
2022-10-13T23:39:04.346Z,5.88
2022-10-13T23:41:32.854Z,5.55
2022-10-13T23:44:01.458Z,5.97
2022-10-13T23:46:31.451Z,5.85
2022-10-13T23:48:59.869Z,6.10
2022-10-13T23:51:28.550Z,5.45
2022-10-13T23:53:57.594Z,5.15
2022-10-13T23:56:26.340Z,5.18
2022-10-13T23:58:54.850Z,5.30
